This is the latest recevied weather packets stored in our database for station/object WB9YJT. If no packets are shown the sender has not sent any weather packets the latest 1 day(s).
| Time | Temp. | Humidity | Pressure | Rain* | Wind** | Luminosity | Snow |
|---|---|---|---|---|---|---|---|
| 1778072250 | 8.33° C | 55% | - | 0 mm | - | - | - |
| 1778071646 | 7.78° C | 60% | - | 0 mm | - | - | - |
| 1778070740 | 7.22° C | 66% | - | 0 mm | - | - | - |
| 1778070133 | 6.67° C | 68% | - | 0 mm | - | - | - |
| 1778069527 | 6.67° C | 69% | - | 0 mm | - | - | - |
| 1778069225 | 6.11° C | 70% | - | 0 mm | - | - | - |
| 1778068922 | 6.11° C | 70% | - | 0 mm | - | - | - |
| 1778068015 | 5° C | 72% | - | 0 mm | - | - | - |
| 1778066804 | 4.44° C | 76% | - | 0 mm | - | - | - |
| 1778066502 | 4.44° C | 75% | - | 0 mm | - | - | - |
| 1778065897 | 4.44° C | 75% | - | 0 mm | - | - | - |
| 1778064988 | 3.89° C | 75% | - | 0 mm | - | - | - |
| 1778064685 | 3.89° C | 75% | - | 0 mm | - | - | - |
| 1778061358 | 5° C | 70% | - | 0 mm | - | - | - |
| 1778061054 | 5° C | 70% | - | 0 mm | - | - | - |
| 1778059239 | 5.56° C | 69% | - | 0 mm | - | - | - |
| 1778058634 | 5.56° C | 69% | - | 0 mm | - | - | - |
| 1778058028 | 5° C | 69% | - | 0 mm | - | - | - |
| 1778056814 | 5.56° C | 68% | - | 0 mm | - | - | - |
| 1778056512 | 5.56° C | 67% | - | 0 mm | - | - | - |
| 1778054997 | 5.56° C | 65% | - | 0 mm | - | - | - |
| 1778053483 | 6.67° C | 62% | - | 0 mm | - | - | - |
| 1778052878 | 6.67° C | 60% | - | 0 mm | - | - | - |
| 1778052575 | 6.67° C | 60% | - | 0 mm | - | - | - |
| 1778052272 | 6.67° C | 59% | - | 0 mm | - | - | - |
* Rain latest hour (hover to see other rain measurements)
** Current wind speed in m/s (hover to see current wind gust speed)